Arlesey, United Kingdom
Current Conditions -  °F | °C
As of 7:50 AM on Friday 19 Dec 2014 (Local Time) from EGGW Reporting Station
Broken Clouds Broken Clouds  
Wind Chill: 39°   Ceiling: 3300
Heat Index: 46°   Visibility: 6mi
Dew Point: 43°   Wind: 18mph
Humidity: 87%   Direction: 290°WNW
Pressure: 29.83"   Gusts: NA
Location:  52.01°N, 0.27°W
Report Text: EGGW 190750Z 29016KT 9999 SCT029 BKN033 08/06 Q1010
Loading
Personal Weather Stations






























Interactive Weather Map New forecast layout! Learn more

10-Day Weather Forecast

Advertisements
Track Severe Weather on mobile